Pilot L239 — OJ9461 — position and weather

sailwx.info

Track history (hours):
 
Tides and Currents Weather Stations Pressure Air Temp Water Temp Dewpoint Dewpoint Depression Visibility Wind Speed Wind Dir Waves Ship Positions

Pilot L239

Last reported at 2016-Jul-28 11:28 UTC. Time now 2016-Jul-29 16:00 UTC.
Position N 60°06' E 024°58'.

Length 15 m.

Type: Pilot. MMSI: 230035440.

Date/timePositionNaut miles runAvg speedWind from/ knotsBaromVisibWave heightAir tempDewpointWater temp
2016-Jul-28 11:28N 60°06' E 024°58'3 0.6
2016-Jul-28 05:33N 60°05' E 025°05'2 1.6
2016-Jul-28 04:22N 60°03' E 025°06'5 4.1
2016-Jul-28 03:10N 60°06' E 024°58'4 6.1
2016-Jul-28 02:33N 60°03' E 024°58'4 1.2
2016-Jul-27 23:31N 60°06' E 024°58'0 0.0
2016-Jul-27 22:33N 60°06' E 024°58'0 0.0
2016-Jul-27 21:33N 60°06' E 024°58'6 5.7
2016-Jul-27 20:30N 60°04' E 025°10'7 1.2
2016-Jul-27 14:32N 60°02' E 024°56'  
2016-Jul-19 02:25N 60°00' E 024°57'6 0.4
2016-Jul-18 12:14N 60°06' E 024°58'  
Track history (hours):
 
Tides and Currents Weather Stations Pressure Air Temp Water Temp Dewpoint Dewpoint Depression Visibility Wind Speed Wind Dir Waves Ship Positions

Pilot L239

Last reported at 2016-Jul-28 11:28 UTC. Time now 2016-Jul-29 16:00 UTC.
Position N 60°06' E 024°58'.

Length 15 m.

Type: Pilot. MMSI: 230035440.

Date/timePositionNaut miles runAvg speedWind from/ knotsBaromVisibWave heightAir tempDewpointWater temp
2016-Jul-28 11:28N 60°06' E 024°58'3 0.6
2016-Jul-28 05:33N 60°05' E 025°05'2 1.6
2016-Jul-28 04:22N 60°03' E 025°06'5 4.1
2016-Jul-28 03:10N 60°06' E 024°58'4 6.1
2016-Jul-28 02:33N 60°03' E 024°58'4 1.2
2016-Jul-27 23:31N 60°06' E 024°58'0 0.0
2016-Jul-27 22:33N 60°06' E 024°58'0 0.0
2016-Jul-27 21:33N 60°06' E 024°58'6 5.7
2016-Jul-27 20:30N 60°04' E 025°10'7 1.2
2016-Jul-27 14:32N 60°02' E 024°56'  
2016-Jul-19 02:25N 60°00' E 024°57'6 0.4
2016-Jul-18 12:14N 60°06' E 024°58'  

Dump ship's entire track history